sensor_id;sensor_type;location;lat;lon;timestamp;P1;durP1;ratioP1;P2;durP2;ratioP2
21505;SDS011;10914;48.886;9.394;2023-05-14T00:01:35;39.10;;;36.70;;
21505;SDS011;10914;48.886;9.394;2023-05-14T00:04:01;39.05;;;36.25;;
21505;SDS011;10914;48.886;9.394;2023-05-14T00:06:26;38.13;;;35.42;;
21505;SDS011;10914;48.886;9.394;2023-05-14T00:08:51;41.30;;;38.60;;
21505;SDS011;10914;48.886;9.394;2023-05-14T00:11:17;47.90;;;44.90;;
21505;SDS011;10914;48.886;9.394;2023-05-14T00:13:42;36.50;;;34.10;;
21505;SDS011;10914;48.886;9.394;2023-05-14T00:16:07;39.95;;;37.10;;
21505;SDS011;10914;48.886;9.394;2023-05-14T00:18:32;35.35;;;32.92;;
21505;SDS011;10914;48.886;9.394;2023-05-14T00:20:57;37.90;;;35.25;;
21505;SDS011;10914;48.886;9.394;2023-05-14T00:23:23;39.70;;;36.78;;
21505;SDS011;10914;48.886;9.394;2023-05-14T00:25:48;38.17;;;35.67;;
21505;SDS011;10914;48.886;9.394;2023-05-14T00:28:13;39.70;;;37.10;;
21505;SDS011;10914;48.886;9.394;2023-05-14T00:30:39;37.47;;;35.07;;
21505;SDS011;10914;48.886;9.394;2023-05-14T00:33:04;41.37;;;38.57;;
21505;SDS011;10914;48.886;9.394;2023-05-14T00:35:29;46.83;;;43.42;;
21505;SDS011;10914;48.886;9.394;2023-05-14T00:37:55;47.13;;;43.70;;
21505;SDS011;10914;48.886;9.394;2023-05-14T00:40:20;46.58;;;43.55;;
21505;SDS011;10914;48.886;9.394;2023-05-14T00:42:46;52.28;;;48.45;;
21505;SDS011;10914;48.886;9.394;2023-05-14T00:45:11;46.47;;;43.40;;
21505;SDS011;10914;48.886;9.394;2023-05-14T00:47:36;45.08;;;42.20;;
21505;SDS011;10914;48.886;9.394;2023-05-14T00:50:03;43.38;;;40.75;;
21505;SDS011;10914;48.886;9.394;2023-05-14T00:52:28;40.67;;;38.10;;
21505;SDS011;10914;48.886;9.394;2023-05-14T00:54:53;44.58;;;41.58;;
21505;SDS011;10914;48.886;9.394;2023-05-14T00:57:19;45.40;;;42.42;;
21505;SDS011;10914;48.886;9.394;2023-05-14T00:59:45;42.80;;;39.85;;
21505;SDS011;10914;48.886;9.394;2023-05-14T01:02:10;38.50;;;35.78;;
21505;SDS011;10914;48.886;9.394;2023-05-14T01:04:36;40.80;;;37.97;;
21505;SDS011;10914;48.886;9.394;2023-05-14T01:07:15;43.45;;;40.28;;
21505;SDS011;10914;48.886;9.394;2023-05-14T01:15:29;36.83;;;34.22;;
21505;SDS011;10914;48.886;9.394;2023-05-14T01:17:56;36.50;;;34.10;;
21505;SDS011;10914;48.886;9.394;2023-05-14T01:20:23;37.03;;;34.47;;
21505;SDS011;10914;48.886;9.394;2023-05-14T01:22:48;36.92;;;34.35;;
21505;SDS011;10914;48.886;9.394;2023-05-14T01:25:13;37.22;;;34.75;;
21505;SDS011;10914;48.886;9.394;2023-05-14T01:30:30;45.05;;;42.13;;
21505;SDS011;10914;48.886;9.394;2023-05-14T01:32:57;38.35;;;35.75;;
21505;SDS011;10914;48.886;9.394;2023-05-14T01:35:24;34.50;;;32.30;;
21505;SDS011;10914;48.886;9.394;2023-05-14T01:37:49;34.97;;;32.58;;
21505;SDS011;10914;48.886;9.394;2023-05-14T01:40:15;37.78;;;35.08;;
21505;SDS011;10914;48.886;9.394;2023-05-14T01:42:41;34.45;;;32.05;;
21505;SDS011;10914;48.886;9.394;2023-05-14T01:45:07;36.65;;;34.15;;
21505;SDS011;10914;48.886;9.394;2023-05-14T01:47:32;35.95;;;33.55;;
21505;SDS011;10914;48.886;9.394;2023-05-14T01:49:57;39.03;;;36.20;;
21505;SDS011;10914;48.886;9.394;2023-05-14T01:52:22;38.77;;;36.27;;
21505;SDS011;10914;48.886;9.394;2023-05-14T01:54:48;38.22;;;35.70;;
21505;SDS011;10914;48.886;9.394;2023-05-14T01:57:13;36.70;;;34.20;;
21505;SDS011;10914;48.886;9.394;2023-05-14T01:59:38;36.00;;;33.50;;
21505;SDS011;10914;48.886;9.394;2023-05-14T02:02:03;36.22;;;33.72;;
21505;SDS011;10914;48.886;9.394;2023-05-14T02:04:29;37.83;;;35.45;;
21505;SDS011;10914;48.886;9.394;2023-05-14T02:06:54;38.60;;;36.07;;
21505;SDS011;10914;48.886;9.394;2023-05-14T02:09:19;37.67;;;35.13;;
21505;SDS011;10914;48.886;9.394;2023-05-14T02:11:44;34.50;;;32.20;;
21505;SDS011;10914;48.886;9.394;2023-05-14T02:14:09;36.22;;;33.72;;
21505;SDS011;10914;48.886;9.394;2023-05-14T02:16:34;33.20;;;31.15;;
21505;SDS011;10914;48.886;9.394;2023-05-14T02:19:00;38.77;;;36.40;;
21505;SDS011;10914;48.886;9.394;2023-05-14T02:21:25;33.58;;;31.38;;
21505;SDS011;10914;48.886;9.394;2023-05-14T02:23:50;34.08;;;31.88;;
21505;SDS011;10914;48.886;9.394;2023-05-14T02:26:16;37.80;;;35.27;;
21505;SDS011;10914;48.886;9.394;2023-05-14T02:28:41;35.75;;;33.45;;
21505;SDS011;10914;48.886;9.394;2023-05-14T02:31:06;34.43;;;32.20;;
21505;SDS011;10914;48.886;9.394;2023-05-14T02:33:31;31.70;;;29.70;;
21505;SDS011;10914;48.886;9.394;2023-05-14T02:35:56;36.08;;;33.67;;
21505;SDS011;10914;48.886;9.394;2023-05-14T02:38:22;35.15;;;32.65;;
21505;SDS011;10914;48.886;9.394;2023-05-14T02:40:47;37.13;;;34.42;;
21505;SDS011;10914;48.886;9.394;2023-05-14T02:43:12;34.83;;;32.47;;
21505;SDS011;10914;48.886;9.394;2023-05-14T02:45:37;36.28;;;33.53;;
21505;SDS011;10914;48.886;9.394;2023-05-14T02:48:03;37.50;;;34.90;;
21505;SDS011;10914;48.886;9.394;2023-05-14T02:50:28;35.70;;;33.10;;
21505;SDS011;10914;48.886;9.394;2023-05-14T02:52:53;33.78;;;31.45;;
21505;SDS011;10914;48.886;9.394;2023-05-14T02:55:18;36.17;;;33.70;;
21505;SDS011;10914;48.886;9.394;2023-05-14T02:57:43;37.25;;;34.60;;
21505;SDS011;10914;48.886;9.394;2023-05-14T03:00:09;37.38;;;34.67;;
21505;SDS011;10914;48.886;9.394;2023-05-14T03:02:34;47.70;;;44.28;;
21505;SDS011;10914;48.886;9.394;2023-05-14T03:05:00;37.95;;;35.42;;
21505;SDS011;10914;48.886;9.394;2023-05-14T03:07:25;36.45;;;33.95;;
21505;SDS011;10914;48.886;9.394;2023-05-14T03:09:50;38.17;;;35.37;;
21505;SDS011;10914;48.886;9.394;2023-05-14T03:12:15;38.85;;;36.05;;
21505;SDS011;10914;48.886;9.394;2023-05-14T03:14:41;39.33;;;36.65;;
21505;SDS011;10914;48.886;9.394;2023-05-14T03:17:06;37.63;;;35.17;;
21505;SDS011;10914;48.886;9.394;2023-05-14T03:19:32;40.47;;;37.50;;
21505;SDS011;10914;48.886;9.394;2023-05-14T03:21:57;68.63;;;64.57;;
21505;SDS011;10914;48.886;9.394;2023-05-14T03:24:22;53.75;;;50.38;;
21505;SDS011;10914;48.886;9.394;2023-05-14T03:26:47;45.53;;;42.40;;
21505;SDS011;10914;48.886;9.394;2023-05-14T03:29:12;47.80;;;44.60;;
21505;SDS011;10914;48.886;9.394;2023-05-14T03:31:41;45.33;;;42.28;;
21505;SDS011;10914;48.886;9.394;2023-05-14T03:34:07;40.72;;;38.03;;
21505;SDS011;10914;48.886;9.394;2023-05-14T03:36:32;47.27;;;44.27;;
21505;SDS011;10914;48.886;9.394;2023-05-14T03:39:00;42.78;;;39.97;;
21505;SDS011;10914;48.886;9.394;2023-05-14T03:41:25;42.33;;;39.42;;
21505;SDS011;10914;48.886;9.394;2023-05-14T03:43:50;42.22;;;39.30;;
21505;SDS011;10914;48.886;9.394;2023-05-14T03:46:15;43.70;;;40.60;;
21505;SDS011;10914;48.886;9.394;2023-05-14T03:48:40;44.17;;;41.17;;
21505;SDS011;10914;48.886;9.394;2023-05-14T03:51:06;44.05;;;40.85;;
21505;SDS011;10914;48.886;9.394;2023-05-14T03:53:32;41.75;;;38.95;;
21505;SDS011;10914;48.886;9.394;2023-05-14T03:55:57;45.50;;;42.33;;
21505;SDS011;10914;48.886;9.394;2023-05-14T03:58:22;41.38;;;38.67;;
21505;SDS011;10914;48.886;9.394;2023-05-14T04:00:47;41.25;;;38.53;;
21505;SDS011;10914;48.886;9.394;2023-05-14T04:03:12;39.60;;;36.85;;
21505;SDS011;10914;48.886;9.394;2023-05-14T04:05:38;41.05;;;38.20;;
21505;SDS011;10914;48.886;9.394;2023-05-14T04:08:03;40.95;;;38.15;;
21505;SDS011;10914;48.886;9.394;2023-05-14T04:10:29;38.35;;;35.83;;
21505;SDS011;10914;48.886;9.394;2023-05-14T04:12:55;38.22;;;35.53;;
21505;SDS011;10914;48.886;9.394;2023-05-14T04:15:20;43.67;;;40.65;;
21505;SDS011;10914;48.886;9.394;2023-05-14T04:17:45;40.73;;;37.90;;
21505;SDS011;10914;48.886;9.394;2023-05-14T04:20:10;39.97;;;37.03;;
21505;SDS011;10914;48.886;9.394;2023-05-14T04:22:35;43.90;;;40.57;;
21505;SDS011;10914;48.886;9.394;2023-05-14T04:25:01;43.45;;;40.55;;
21505;SDS011;10914;48.886;9.394;2023-05-14T04:27:27;44.20;;;41.20;;
21505;SDS011;10914;48.886;9.394;2023-05-14T04:29:52;45.78;;;42.83;;
21505;SDS011;10914;48.886;9.394;2023-05-14T04:32:17;48.07;;;45.00;;
21505;SDS011;10914;48.886;9.394;2023-05-14T04:34:43;48.53;;;45.60;;
21505;SDS011;10914;48.886;9.394;2023-05-14T04:37:08;44.37;;;41.57;;
21505;SDS011;10914;48.886;9.394;2023-05-14T04:39:34;42.67;;;39.60;;
21505;SDS011;10914;48.886;9.394;2023-05-14T04:41:59;45.67;;;42.67;;
21505;SDS011;10914;48.886;9.394;2023-05-14T04:44:24;47.35;;;44.03;;
21505;SDS011;10914;48.886;9.394;2023-05-14T04:46:50;47.80;;;44.47;;
21505;SDS011;10914;48.886;9.394;2023-05-14T04:49:15;38.85;;;36.05;;
21505;SDS011;10914;48.886;9.394;2023-05-14T04:51:40;39.42;;;36.65;;
21505;SDS011;10914;48.886;9.394;2023-05-14T04:54:06;40.28;;;37.38;;
21505;SDS011;10914;48.886;9.394;2023-05-14T04:56:31;39.67;;;36.87;;
21505;SDS011;10914;48.886;9.394;2023-05-14T04:58:56;39.27;;;36.43;;
21505;SDS011;10914;48.886;9.394;2023-05-14T05:01:21;39.53;;;36.55;;
21505;SDS011;10914;48.886;9.394;2023-05-14T05:03:47;37.50;;;34.80;;
21505;SDS011;10914;48.886;9.394;2023-05-14T05:06:12;36.97;;;34.25;;
21505;SDS011;10914;48.886;9.394;2023-05-14T05:08:37;37.08;;;34.45;;
21505;SDS011;10914;48.886;9.394;2023-05-14T05:11:03;36.60;;;33.70;;
21505;SDS011;10914;48.886;9.394;2023-05-14T05:13:28;33.83;;;31.42;;
21505;SDS011;10914;48.886;9.394;2023-05-14T05:15:53;35.27;;;32.63;;
21505;SDS011;10914;48.886;9.394;2023-05-14T05:18:18;33.83;;;31.33;;
21505;SDS011;10914;48.886;9.394;2023-05-14T05:20:44;38.13;;;35.23;;
21505;SDS011;10914;48.886;9.394;2023-05-14T05:23:09;35.58;;;32.83;;
21505;SDS011;10914;48.886;9.394;2023-05-14T05:25:34;34.37;;;31.97;;
21505;SDS011;10914;48.886;9.394;2023-05-14T05:28:00;35.00;;;32.55;;
21505;SDS011;10914;48.886;9.394;2023-05-14T05:30:25;35.20;;;32.70;;
21505;SDS011;10914;48.886;9.394;2023-05-14T05:32:50;35.72;;;32.92;;
21505;SDS011;10914;48.886;9.394;2023-05-14T05:35:15;36.03;;;33.37;;
21505;SDS011;10914;48.886;9.394;2023-05-14T05:37:41;33.87;;;31.57;;
21505;SDS011;10914;48.886;9.394;2023-05-14T05:40:07;34.97;;;32.47;;
21505;SDS011;10914;48.886;9.394;2023-05-14T05:42:33;37.10;;;34.45;;
21505;SDS011;10914;48.886;9.394;2023-05-14T05:44:58;39.13;;;36.43;;
21505;SDS011;10914;48.886;9.394;2023-05-14T05:47:23;37.08;;;34.50;;
21505;SDS011;10914;48.886;9.394;2023-05-14T05:49:48;37.55;;;34.97;;
21505;SDS011;10914;48.886;9.394;2023-05-14T05:52:13;36.03;;;33.67;;
21505;SDS011;10914;48.886;9.394;2023-05-14T05:54:38;33.27;;;30.97;;
21505;SDS011;10914;48.886;9.394;2023-05-14T05:57:04;34.27;;;31.87;;
21505;SDS011;10914;48.886;9.394;2023-05-14T05:59:29;35.42;;;32.80;;
21505;SDS011;10914;48.886;9.394;2023-05-14T06:01:54;36.70;;;34.20;;
21505;SDS011;10914;48.886;9.394;2023-05-14T06:04:20;36.28;;;33.88;;
21505;SDS011;10914;48.886;9.394;2023-05-14T06:06:45;37.53;;;35.05;;
21505;SDS011;10914;48.886;9.394;2023-05-14T06:09:10;38.47;;;35.77;;
21505;SDS011;10914;48.886;9.394;2023-05-14T06:11:36;35.65;;;33.35;;
21505;SDS011;10914;48.886;9.394;2023-05-14T06:14:01;34.13;;;31.83;;
21505;SDS011;10914;48.886;9.394;2023-05-14T06:16:26;33.83;;;31.53;;
21505;SDS011;10914;48.886;9.394;2023-05-14T06:18:52;33.25;;;30.92;;
21505;SDS011;10914;48.886;9.394;2023-05-14T06:21:18;32.97;;;30.58;;
21505;SDS011;10914;48.886;9.394;2023-05-14T06:23:43;32.40;;;30.27;;
21505;SDS011;10914;48.886;9.394;2023-05-14T06:26:09;32.35;;;30.25;;
21505;SDS011;10914;48.886;9.394;2023-05-14T06:28:34;31.90;;;29.77;;
21505;SDS011;10914;48.886;9.394;2023-05-14T06:30:59;31.60;;;29.33;;
21505;SDS011;10914;48.886;9.394;2023-05-14T06:33:24;31.87;;;29.63;;
21505;SDS011;10914;48.886;9.394;2023-05-14T06:35:54;32.45;;;30.25;;
21505;SDS011;10914;48.886;9.394;2023-05-14T06:38:19;32.50;;;30.10;;
21505;SDS011;10914;48.886;9.394;2023-05-14T06:40:45;33.55;;;31.02;;
21505;SDS011;10914;48.886;9.394;2023-05-14T06:43:10;34.45;;;31.95;;
21505;SDS011;10914;48.886;9.394;2023-05-14T06:45:35;32.80;;;30.50;;
21505;SDS011;10914;48.886;9.394;2023-05-14T06:48:01;33.10;;;30.80;;
21505;SDS011;10914;48.886;9.394;2023-05-14T06:50:26;32.80;;;30.60;;
21505;SDS011;10914;48.886;9.394;2023-05-14T06:52:51;34.20;;;31.63;;
21505;SDS011;10914;48.886;9.394;2023-05-14T06:55:16;34.15;;;31.73;;
21505;SDS011;10914;48.886;9.394;2023-05-14T06:57:46;32.72;;;30.27;;
21505;SDS011;10914;48.886;9.394;2023-05-14T07:00:11;33.72;;;31.38;;
21505;SDS011;10914;48.886;9.394;2023-05-14T07:02:38;35.70;;;33.33;;
21505;SDS011;10914;48.886;9.394;2023-05-14T07:05:03;35.72;;;33.33;;
21505;SDS011;10914;48.886;9.394;2023-05-14T07:07:29;36.60;;;34.13;;
21505;SDS011;10914;48.886;9.394;2023-05-14T07:09:54;36.53;;;34.15;;
21505;SDS011;10914;48.886;9.394;2023-05-14T07:12:19;39.88;;;37.13;;
21505;SDS011;10914;48.886;9.394;2023-05-14T07:14:44;38.55;;;36.05;;
21505;SDS011;10914;48.886;9.394;2023-05-14T07:17:10;38.22;;;35.63;;
21505;SDS011;10914;48.886;9.394;2023-05-14T07:19:35;36.83;;;34.30;;
21505;SDS011;10914;48.886;9.394;2023-05-14T07:22:01;34.43;;;32.13;;
21505;SDS011;10914;48.886;9.394;2023-05-14T07:24:26;34.65;;;32.15;;
21505;SDS011;10914;48.886;9.394;2023-05-14T07:26:51;35.33;;;32.72;;
21505;SDS011;10914;48.886;9.394;2023-05-14T07:29:17;34.53;;;32.17;;
21505;SDS011;10914;48.886;9.394;2023-05-14T07:31:42;31.93;;;29.67;;
21505;SDS011;10914;48.886;9.394;2023-05-14T07:34:07;34.70;;;32.00;;
21505;SDS011;10914;48.886;9.394;2023-05-14T07:36:34;33.58;;;31.02;;
21505;SDS011;10914;48.886;9.394;2023-05-14T07:39:00;34.85;;;32.40;;
21505;SDS011;10914;48.886;9.394;2023-05-14T07:41:25;33.80;;;31.60;;
21505;SDS011;10914;48.886;9.394;2023-05-14T07:43:50;32.83;;;30.52;;
21505;SDS011;10914;48.886;9.394;2023-05-14T07:46:15;32.83;;;30.60;;
21505;SDS011;10914;48.886;9.394;2023-05-14T07:48:40;33.80;;;31.42;;
21505;SDS011;10914;48.886;9.394;2023-05-14T07:51:06;31.60;;;29.40;;
21505;SDS011;10914;48.886;9.394;2023-05-14T07:53:31;31.25;;;29.05;;
21505;SDS011;10914;48.886;9.394;2023-05-14T07:55:56;32.33;;;30.13;;
21505;SDS011;10914;48.886;9.394;2023-05-14T07:58:22;32.63;;;30.38;;
21505;SDS011;10914;48.886;9.394;2023-05-14T08:00:47;32.00;;;29.83;;
21505;SDS011;10914;48.886;9.394;2023-05-14T08:03:13;31.50;;;29.00;;
21505;SDS011;10914;48.886;9.394;2023-05-14T08:05:38;31.50;;;29.40;;
21505;SDS011;10914;48.886;9.394;2023-05-14T08:08:03;32.40;;;30.13;;
21505;SDS011;10914;48.886;9.394;2023-05-14T08:10:28;32.53;;;29.98;;
21505;SDS011;10914;48.886;9.394;2023-05-14T08:12:54;31.03;;;28.63;;
21505;SDS011;10914;48.886;9.394;2023-05-14T08:15:19;32.13;;;29.95;;
21505;SDS011;10914;48.886;9.394;2023-05-14T08:17:44;31.27;;;28.88;;
21505;SDS011;10914;48.886;9.394;2023-05-14T08:20:09;31.63;;;29.23;;
21505;SDS011;10914;48.886;9.394;2023-05-14T08:22:36;31.13;;;28.98;;
21505;SDS011;10914;48.886;9.394;2023-05-14T08:25:01;30.52;;;28.33;;
21505;SDS011;10914;48.886;9.394;2023-05-14T08:27:27;31.20;;;29.05;;
21505;SDS011;10914;48.886;9.394;2023-05-14T08:29:52;30.90;;;28.80;;
21505;SDS011;10914;48.886;9.394;2023-05-14T08:32:18;30.07;;;27.97;;
21505;SDS011;10914;48.886;9.394;2023-05-14T08:34:43;29.53;;;27.53;;
21505;SDS011;10914;48.886;9.394;2023-05-14T08:37:08;30.00;;;28.00;;
21505;SDS011;10914;48.886;9.394;2023-05-14T08:39:33;31.23;;;29.13;;
21505;SDS011;10914;48.886;9.394;2023-05-14T08:41:59;32.03;;;29.73;;
21505;SDS011;10914;48.886;9.394;2023-05-14T08:47:08;31.20;;;28.90;;
21505;SDS011;10914;48.886;9.394;2023-05-14T08:49:38;32.22;;;30.02;;
21505;SDS011;10914;48.886;9.394;2023-05-14T08:52:05;32.42;;;30.15;;
21505;SDS011;10914;48.886;9.394;2023-05-14T08:54:30;31.42;;;29.27;;
21505;SDS011;10914;48.886;9.394;2023-05-14T08:56:56;29.88;;;27.88;;
21505;SDS011;10914;48.886;9.394;2023-05-14T08:59:23;33.33;;;30.98;;
21505;SDS011;10914;48.886;9.394;2023-05-14T09:01:51;31.00;;;29.00;;
21505;SDS011;10914;48.886;9.394;2023-05-14T09:04:18;30.40;;;28.40;;
21505;SDS011;10914;48.886;9.394;2023-05-14T09:06:43;31.95;;;29.73;;
21505;SDS011;10914;48.886;9.394;2023-05-14T09:09:10;31.98;;;29.77;;
21505;SDS011;10914;48.886;9.394;2023-05-14T09:11:46;29.48;;;27.58;;
21505;SDS011;10914;48.886;9.394;2023-05-14T09:14:11;29.67;;;27.52;;
21505;SDS011;10914;48.886;9.394;2023-05-14T09:16:37;31.63;;;29.27;;
21505;SDS011;10914;48.886;9.394;2023-05-14T09:19:05;31.85;;;29.52;;
21505;SDS011;10914;48.886;9.394;2023-05-14T09:21:30;31.73;;;29.42;;
21505;SDS011;10914;48.886;9.394;2023-05-14T09:23:56;32.60;;;30.35;;
21505;SDS011;10914;48.886;9.394;2023-05-14T09:26:24;31.25;;;29.15;;
21505;SDS011;10914;48.886;9.394;2023-05-14T09:28:52;30.88;;;28.77;;
21505;SDS011;10914;48.886;9.394;2023-05-14T09:31:18;31.17;;;29.08;;
21505;SDS011;10914;48.886;9.394;2023-05-14T09:33:48;31.95;;;29.75;;
21505;SDS011;10914;48.886;9.394;2023-05-14T09:36:13;31.33;;;29.23;;
21505;SDS011;10914;48.886;9.394;2023-05-14T09:38:38;30.87;;;28.77;;
21505;SDS011;10914;48.886;9.394;2023-05-14T09:41:04;28.93;;;27.03;;
21505;SDS011;10914;48.886;9.394;2023-05-14T09:43:29;29.40;;;27.38;;
21505;SDS011;10914;48.886;9.394;2023-05-14T09:45:54;30.98;;;28.88;;
21505;SDS011;10914;48.886;9.394;2023-05-14T09:48:20;30.80;;;28.77;;
21505;SDS011;10914;48.886;9.394;2023-05-14T09:50:46;30.40;;;28.30;;
21505;SDS011;10914;48.886;9.394;2023-05-14T09:53:12;31.83;;;29.58;;
21505;SDS011;10914;48.886;9.394;2023-05-14T09:55:37;31.20;;;29.00;;
21505;SDS011;10914;48.886;9.394;2023-05-14T09:58:03;31.27;;;29.27;;
21505;SDS011;10914;48.886;9.394;2023-05-14T10:00:30;29.50;;;27.60;;
21505;SDS011;10914;48.886;9.394;2023-05-14T10:02:56;29.80;;;28.00;;
21505;SDS011;10914;48.886;9.394;2023-05-14T10:05:21;31.17;;;29.17;;
21505;SDS011;10914;48.886;9.394;2023-05-14T10:07:47;33.55;;;31.15;;
21505;SDS011;10914;48.886;9.394;2023-05-14T10:10:19;32.67;;;30.58;;
21505;SDS011;10914;48.886;9.394;2023-05-14T10:12:56;31.23;;;29.08;;
21505;SDS011;10914;48.886;9.394;2023-05-14T10:15:25;31.25;;;29.05;;
21505;SDS011;10914;48.886;9.394;2023-05-14T10:17:55;30.38;;;28.48;;
21505;SDS011;10914;48.886;9.394;2023-05-14T10:20:21;31.63;;;29.52;;
21505;SDS011;10914;48.886;9.394;2023-05-14T10:22:46;30.25;;;28.33;;
21505;SDS011;10914;48.886;9.394;2023-05-14T10:25:12;29.50;;;27.60;;
21505;SDS011;10914;48.886;9.394;2023-05-14T10:27:37;31.08;;;28.98;;
21505;SDS011;10914;48.886;9.394;2023-05-14T10:30:04;31.77;;;29.77;;
21505;SDS011;10914;48.886;9.394;2023-05-14T10:32:30;30.60;;;28.70;;
21505;SDS011;10914;48.886;9.394;2023-05-14T10:34:56;31.30;;;29.30;;
21505;SDS011;10914;48.886;9.394;2023-05-14T10:37:23;31.10;;;29.13;;
21505;SDS011;10914;48.886;9.394;2023-05-14T10:40:06;28.50;;;26.70;;
21505;SDS011;10914;48.886;9.394;2023-05-14T10:42:34;30.45;;;28.35;;
21505;SDS011;10914;48.886;9.394;2023-05-14T10:45:04;28.40;;;26.60;;
21505;SDS011;10914;48.886;9.394;2023-05-14T10:47:32;25.70;;;24.20;;
21505;SDS011;10914;48.886;9.394;2023-05-14T10:49:58;27.13;;;25.40;;
21505;SDS011;10914;48.886;9.394;2023-05-14T10:52:24;114.78;;;64.97;;
21505;SDS011;10914;48.886;9.394;2023-05-14T10:54:59;26.75;;;24.95;;
21505;SDS011;10914;48.886;9.394;2023-05-14T10:57:25;27.05;;;25.30;;
21505;SDS011;10914;48.886;9.394;2023-05-14T10:59:52;26.00;;;24.50;;
21505;SDS011;10914;48.886;9.394;2023-05-14T11:05:00;25.30;;;23.80;;
21505;SDS011;10914;48.886;9.394;2023-05-14T11:07:28;23.75;;;22.27;;
21505;SDS011;10914;48.886;9.394;2023-05-14T11:09:58;24.50;;;23.00;;
21505;SDS011;10914;48.886;9.394;2023-05-14T11:12:24;24.52;;;23.13;;
21505;SDS011;10914;48.886;9.394;2023-05-14T11:14:51;23.73;;;22.08;;
21505;SDS011;10914;48.886;9.394;2023-05-14T11:17:16;24.27;;;22.67;;
21505;SDS011;10914;48.886;9.394;2023-05-14T11:19:42;24.42;;;22.63;;
21505;SDS011;10914;48.886;9.394;2023-05-14T11:22:07;23.23;;;21.92;;
21505;SDS011;10914;48.886;9.394;2023-05-14T11:24:32;24.30;;;22.52;;
21505;SDS011;10914;48.886;9.394;2023-05-14T11:26:58;24.00;;;22.60;;
21505;SDS011;10914;48.886;9.394;2023-05-14T11:29:23;24.25;;;22.85;;
21505;SDS011;10914;48.886;9.394;2023-05-14T11:31:48;24.02;;;22.45;;
21505;SDS011;10914;48.886;9.394;2023-05-14T11:34:14;24.10;;;22.67;;
21505;SDS011;10914;48.886;9.394;2023-05-14T11:36:39;26.38;;;24.73;;
21505;SDS011;10914;48.886;9.394;2023-05-14T11:39:04;25.55;;;24.15;;
21505;SDS011;10914;48.886;9.394;2023-05-14T11:41:29;24.90;;;23.50;;
21505;SDS011;10914;48.886;9.394;2023-05-14T11:43:55;25.80;;;24.35;;
21505;SDS011;10914;48.886;9.394;2023-05-14T11:46:20;25.50;;;24.00;;
21505;SDS011;10914;48.886;9.394;2023-05-14T11:48:46;23.92;;;22.52;;
21505;SDS011;10914;48.886;9.394;2023-05-14T11:51:11;21.42;;;20.23;;
21505;SDS011;10914;48.886;9.394;2023-05-14T11:53:36;23.60;;;22.30;;
21505;SDS011;10914;48.886;9.394;2023-05-14T11:56:02;36.83;;;33.33;;
21505;SDS011;10914;48.886;9.394;2023-05-14T11:58:27;37.17;;;33.67;;
21505;SDS011;10914;48.886;9.394;2023-05-14T12:00:55;26.50;;;24.50;;
21505;SDS011;10914;48.886;9.394;2023-05-14T12:03:21;24.02;;;22.63;;
21505;SDS011;10914;48.886;9.394;2023-05-14T12:05:59;31.63;;;29.23;;
21505;SDS011;10914;48.886;9.394;2023-05-14T12:08:26;22.23;;;20.92;;
21505;SDS011;10914;48.886;9.394;2023-05-14T12:10:51;23.08;;;21.65;;
21505;SDS011;10914;48.886;9.394;2023-05-14T12:13:17;21.80;;;20.60;;
21505;SDS011;10914;48.886;9.394;2023-05-14T12:15:58;34.70;;;31.77;;
21505;SDS011;10914;48.886;9.394;2023-05-14T12:18:24;21.00;;;19.80;;
21505;SDS011;10914;48.886;9.394;2023-05-14T12:20:50;22.13;;;20.67;;
21505;SDS011;10914;48.886;9.394;2023-05-14T12:23:16;22.77;;;21.38;;
21505;SDS011;10914;48.886;9.394;2023-05-14T12:25:50;23.33;;;21.83;;
21505;SDS011;10914;48.886;9.394;2023-05-14T12:28:15;23.17;;;21.67;;
21505;SDS011;10914;48.886;9.394;2023-05-14T12:30:41;21.33;;;20.13;;
21505;SDS011;10914;48.886;9.394;2023-05-14T12:33:06;25.40;;;23.70;;
21505;SDS011;10914;48.886;9.394;2023-05-14T12:35:31;22.13;;;20.73;;
21505;SDS011;10914;48.886;9.394;2023-05-14T12:37:56;22.65;;;21.35;;
21505;SDS011;10914;48.886;9.394;2023-05-14T12:40:22;22.30;;;20.97;;
21505;SDS011;10914;48.886;9.394;2023-05-14T12:42:47;23.42;;;22.17;;
21505;SDS011;10914;48.886;9.394;2023-05-14T12:45:12;22.40;;;21.10;;
21505;SDS011;10914;48.886;9.394;2023-05-14T12:47:37;21.20;;;20.00;;
21505;SDS011;10914;48.886;9.394;2023-05-14T12:50:03;21.20;;;20.00;;
21505;SDS011;10914;48.886;9.394;2023-05-14T12:52:28;21.58;;;20.30;;
21505;SDS011;10914;48.886;9.394;2023-05-14T12:54:53;21.02;;;19.83;;
21505;SDS011;10914;48.886;9.394;2023-05-14T12:57:18;22.67;;;21.27;;
21505;SDS011;10914;48.886;9.394;2023-05-14T12:59:43;21.03;;;19.90;;
21505;SDS011;10914;48.886;9.394;2023-05-14T13:02:09;21.63;;;20.43;;
21505;SDS011;10914;48.886;9.394;2023-05-14T13:04:34;37.80;;;34.35;;
21505;SDS011;10914;48.886;9.394;2023-05-14T13:07:00;21.33;;;20.00;;
21505;SDS011;10914;48.886;9.394;2023-05-14T13:09:25;21.23;;;19.87;;
21505;SDS011;10914;48.886;9.394;2023-05-14T13:11:51;27.50;;;25.27;;
21505;SDS011;10914;48.886;9.394;2023-05-14T13:14:17;21.30;;;20.00;;
21505;SDS011;10914;48.886;9.394;2023-05-14T13:16:42;21.63;;;20.43;;
21505;SDS011;10914;48.886;9.394;2023-05-14T13:19:07;22.53;;;21.13;;
21505;SDS011;10914;48.886;9.394;2023-05-14T13:21:32;20.02;;;18.92;;
21505;SDS011;10914;48.886;9.394;2023-05-14T13:23:57;23.40;;;21.70;;
21505;SDS011;10914;48.886;9.394;2023-05-14T13:26:23;25.50;;;23.50;;
21505;SDS011;10914;48.886;9.394;2023-05-14T13:28:50;21.00;;;19.60;;
21505;SDS011;10914;48.886;9.394;2023-05-14T13:31:16;19.50;;;18.23;;
21505;SDS011;10914;48.886;9.394;2023-05-14T13:33:42;24.10;;;22.20;;
21505;SDS011;10914;48.886;9.394;2023-05-14T13:36:08;19.00;;;17.90;;
21505;SDS011;10914;48.886;9.394;2023-05-14T13:38:33;18.67;;;17.63;;
21505;SDS011;10914;48.886;9.394;2023-05-14T13:40:59;19.27;;;18.27;;
21505;SDS011;10914;48.886;9.394;2023-05-14T13:43:29;19.98;;;18.80;;
21505;SDS011;10914;48.886;9.394;2023-05-14T13:45:57;21.30;;;20.00;;
21505;SDS011;10914;48.886;9.394;2023-05-14T13:48:23;21.80;;;20.50;;
21505;SDS011;10914;48.886;9.394;2023-05-14T13:50:48;20.90;;;19.80;;
21505;SDS011;10914;48.886;9.394;2023-05-14T13:53:13;22.85;;;21.23;;
21505;SDS011;10914;48.886;9.394;2023-05-14T13:55:39;24.80;;;23.20;;
21505;SDS011;10914;48.886;9.394;2023-05-14T13:58:05;22.88;;;21.58;;
21505;SDS011;10914;48.886;9.394;2023-05-14T14:00:30;21.98;;;20.77;;
21505;SDS011;10914;48.886;9.394;2023-05-14T14:02:56;24.50;;;23.10;;
21505;SDS011;10914;48.886;9.394;2023-05-14T14:05:21;21.95;;;20.52;;
21505;SDS011;10914;48.886;9.394;2023-05-14T14:07:47;23.35;;;21.85;;
21505;SDS011;10914;48.886;9.394;2023-05-14T14:10:12;22.77;;;21.43;;
21505;SDS011;10914;48.886;9.394;2023-05-14T14:12:38;31.85;;;29.00;;
21505;SDS011;10914;48.886;9.394;2023-05-14T14:15:04;25.37;;;23.57;;
21505;SDS011;10914;48.886;9.394;2023-05-14T14:17:29;28.65;;;26.20;;
21505;SDS011;10914;48.886;9.394;2023-05-14T14:19:54;35.92;;;32.70;;
21505;SDS011;10914;48.886;9.394;2023-05-14T14:22:19;28.60;;;26.40;;
21505;SDS011;10914;48.886;9.394;2023-05-14T14:24:45;32.30;;;29.60;;
21505;SDS011;10914;48.886;9.394;2023-05-14T14:27:10;39.30;;;35.70;;